sensor_id;sensor_type;location;lat;lon;timestamp;temperature;humidity
975;DHT22;6115;49.296;10.602;2023-12-28T00:04:19;2.00;66.30
975;DHT22;6115;49.296;10.602;2023-12-28T00:09:20;1.90;66.50
975;DHT22;6115;49.296;10.602;2023-12-28T00:14:20;1.80;66.70
975;DHT22;6115;49.296;10.602;2023-12-28T00:19:21;1.80;66.90
975;DHT22;6115;49.296;10.602;2023-12-28T00:24:22;1.70;66.70
975;DHT22;6115;49.296;10.602;2023-12-28T00:29:22;1.60;67.30
975;DHT22;6115;49.296;10.602;2023-12-28T00:34:23;1.50;67.20
975;DHT22;6115;49.296;10.602;2023-12-28T00:39:23;1.40;67.10
975;DHT22;6115;49.296;10.602;2023-12-28T00:44:24;1.40;67.80
975;DHT22;6115;49.296;10.602;2023-12-28T00:49:25;1.40;68.00
975;DHT22;6115;49.296;10.602;2023-12-28T00:54:25;1.50;68.50
975;DHT22;6115;49.296;10.602;2023-12-28T00:59:26;1.50;68.80
975;DHT22;6115;49.296;10.602;2023-12-28T01:04:26;1.50;68.70
975;DHT22;6115;49.296;10.602;2023-12-28T01:09:30;1.70;68.50
975;DHT22;6115;49.296;10.602;2023-12-28T01:14:30;1.70;68.00
975;DHT22;6115;49.296;10.602;2023-12-28T01:19:31;1.90;67.50
975;DHT22;6115;49.296;10.602;2023-12-28T01:24:32;2.10;67.60
975;DHT22;6115;49.296;10.602;2023-12-28T01:29:32;2.10;66.70
975;DHT22;6115;49.296;10.602;2023-12-28T01:34:36;1.90;66.40
975;DHT22;6115;49.296;10.602;2023-12-28T01:39:36;1.90;66.30
975;DHT22;6115;49.296;10.602;2023-12-28T01:44:37;2.00;66.20
975;DHT22;6115;49.296;10.602;2023-12-28T01:49:37;2.30;65.30
975;DHT22;6115;49.296;10.602;2023-12-28T01:54:38;2.50;64.10
975;DHT22;6115;49.296;10.602;2023-12-28T01:59:40;2.30;63.70
975;DHT22;6115;49.296;10.602;2023-12-28T02:04:41;2.30;63.50
975;DHT22;6115;49.296;10.602;2023-12-28T02:09:42;2.70;62.60
975;DHT22;6115;49.296;10.602;2023-12-28T02:14:46;2.90;61.40
975;DHT22;6115;49.296;10.602;2023-12-28T02:19:51;2.90;60.80
975;DHT22;6115;49.296;10.602;2023-12-28T02:25:11;3.10;59.80
975;DHT22;6115;49.296;10.602;2023-12-28T02:30:13;3.00;59.80
975;DHT22;6115;49.296;10.602;2023-12-28T02:35:36;2.70;60.20
975;DHT22;6115;49.296;10.602;2023-12-28T02:40:39;2.50;60.60
975;DHT22;6115;49.296;10.602;2023-12-28T02:45:40;2.40;61.00
975;DHT22;6115;49.296;10.602;2023-12-28T02:50:41;2.20;61.30
975;DHT22;6115;49.296;10.602;2023-12-28T02:55:41;2.10;61.70
975;DHT22;6115;49.296;10.602;2023-12-28T03:00:42;2.20;62.10
975;DHT22;6115;49.296;10.602;2023-12-28T03:05:42;2.20;62.40
975;DHT22;6115;49.296;10.602;2023-12-28T03:10:43;2.30;62.30
975;DHT22;6115;49.296;10.602;2023-12-28T03:15:44;2.40;62.10
975;DHT22;6115;49.296;10.602;2023-12-28T03:20:44;2.40;61.80
975;DHT22;6115;49.296;10.602;2023-12-28T03:25:45;2.40;61.70
975;DHT22;6115;49.296;10.602;2023-12-28T03:30:45;2.40;61.80
975;DHT22;6115;49.296;10.602;2023-12-28T03:35:46;2.30;61.50
975;DHT22;6115;49.296;10.602;2023-12-28T03:40:46;2.40;61.50
975;DHT22;6115;49.296;10.602;2023-12-28T03:45:48;2.50;60.80
975;DHT22;6115;49.296;10.602;2023-12-28T03:50:48;2.60;60.70
975;DHT22;6115;49.296;10.602;2023-12-28T03:55:49;2.60;59.90
975;DHT22;6115;49.296;10.602;2023-12-28T04:00:50;2.40;60.70
975;DHT22;6115;49.296;10.602;2023-12-28T04:05:51;2.20;61.10
975;DHT22;6115;49.296;10.602;2023-12-28T04:10:51;2.10;62.20
975;DHT22;6115;49.296;10.602;2023-12-28T04:15:52;2.10;61.70
975;DHT22;6115;49.296;10.602;2023-12-28T04:20:53;2.10;62.00
975;DHT22;6115;49.296;10.602;2023-12-28T04:25:53;2.00;62.60
975;DHT22;6115;49.296;10.602;2023-12-28T04:30:54;2.00;62.70
975;DHT22;6115;49.296;10.602;2023-12-28T04:35:55;2.00;62.70
975;DHT22;6115;49.296;10.602;2023-12-28T04:40:55;1.90;62.60
975;DHT22;6115;49.296;10.602;2023-12-28T04:45:56;1.80;63.20
975;DHT22;6115;49.296;10.602;2023-12-28T04:50:56;1.90;63.20
975;DHT22;6115;49.296;10.602;2023-12-28T04:55:57;1.80;63.10
975;DHT22;6115;49.296;10.602;2023-12-28T05:00:57;1.80;63.40
975;DHT22;6115;49.296;10.602;2023-12-28T05:05:58;1.80;63.70
975;DHT22;6115;49.296;10.602;2023-12-28T05:10:58;2.00;64.50
975;DHT22;6115;49.296;10.602;2023-12-28T05:16:00;2.00;64.50
975;DHT22;6115;49.296;10.602;2023-12-28T05:21:01;2.10;64.60
975;DHT22;6115;49.296;10.602;2023-12-28T05:26:01;2.10;64.80
975;DHT22;6115;49.296;10.602;2023-12-28T05:31:02;2.10;64.80
975;DHT22;6115;49.296;10.602;2023-12-28T05:36:03;2.10;64.80
975;DHT22;6115;49.296;10.602;2023-12-28T05:41:04;2.20;65.10
975;DHT22;6115;49.296;10.602;2023-12-28T05:46:04;2.30;64.90
975;DHT22;6115;49.296;10.602;2023-12-28T05:51:05;2.20;64.80
975;DHT22;6115;49.296;10.602;2023-12-28T05:56:06;2.30;65.00
975;DHT22;6115;49.296;10.602;2023-12-28T06:01:06;2.60;63.90
975;DHT22;6115;49.296;10.602;2023-12-28T06:06:07;2.80;63.80
975;DHT22;6115;49.296;10.602;2023-12-28T06:11:08;2.80;63.90
975;DHT22;6115;49.296;10.602;2023-12-28T06:16:09;2.90;64.30
975;DHT22;6115;49.296;10.602;2023-12-28T06:21:09;3.00;64.10
975;DHT22;6115;49.296;10.602;2023-12-28T06:26:10;3.10;63.70
975;DHT22;6115;49.296;10.602;2023-12-28T06:31:10;3.20;63.80
975;DHT22;6115;49.296;10.602;2023-12-28T06:36:12;3.50;64.10
975;DHT22;6115;49.296;10.602;2023-12-28T06:41:12;3.60;64.20
975;DHT22;6115;49.296;10.602;2023-12-28T06:46:13;3.80;64.00
975;DHT22;6115;49.296;10.602;2023-12-28T06:51:18;3.90;63.70
975;DHT22;6115;49.296;10.602;2023-12-28T06:56:19;4.00;63.10
975;DHT22;6115;49.296;10.602;2023-12-28T07:01:20;4.00;62.60
975;DHT22;6115;49.296;10.602;2023-12-28T07:06:20;4.10;62.70
975;DHT22;6115;49.296;10.602;2023-12-28T07:11:21;4.20;62.60
975;DHT22;6115;49.296;10.602;2023-12-28T07:16:22;4.30;62.60
975;DHT22;6115;49.296;10.602;2023-12-28T07:21:23;4.40;62.70
975;DHT22;6115;49.296;10.602;2023-12-28T07:26:23;4.50;62.60
975;DHT22;6115;49.296;10.602;2023-12-28T07:31:25;4.60;62.60
975;DHT22;6115;49.296;10.602;2023-12-28T07:36:26;4.70;62.50
975;DHT22;6115;49.296;10.602;2023-12-28T07:41:26;4.80;62.00
975;DHT22;6115;49.296;10.602;2023-12-28T07:46:27;4.90;61.70
975;DHT22;6115;49.296;10.602;2023-12-28T07:51:28;5.00;60.80
975;DHT22;6115;49.296;10.602;2023-12-28T07:56:28;5.00;60.70
975;DHT22;6115;49.296;10.602;2023-12-28T08:01:29;5.00;61.40
975;DHT22;6115;49.296;10.602;2023-12-28T08:06:30;5.00;61.70
975;DHT22;6115;49.296;10.602;2023-12-28T08:11:33;5.00;61.80
975;DHT22;6115;49.296;10.602;2023-12-28T08:16:34;5.20;62.00
975;DHT22;6115;49.296;10.602;2023-12-28T08:21:35;5.30;61.90
975;DHT22;6115;49.296;10.602;2023-12-28T08:26:36;5.40;61.30
975;DHT22;6115;49.296;10.602;2023-12-28T08:31:36;5.50;61.00
975;DHT22;6115;49.296;10.602;2023-12-28T08:36:37;5.70;60.70
975;DHT22;6115;49.296;10.602;2023-12-28T08:41:37;5.80;59.40
975;DHT22;6115;49.296;10.602;2023-12-28T08:46:38;6.00;59.50
975;DHT22;6115;49.296;10.602;2023-12-28T08:51:39;6.00;60.00
975;DHT22;6115;49.296;10.602;2023-12-28T08:56:39;6.10;60.20
975;DHT22;6115;49.296;10.602;2023-12-28T09:01:40;6.30;60.30
975;DHT22;6115;49.296;10.602;2023-12-28T09:06:40;6.30;59.80
975;DHT22;6115;49.296;10.602;2023-12-28T09:11:41;6.30;59.70
975;DHT22;6115;49.296;10.602;2023-12-28T09:16:42;6.40;59.80
975;DHT22;6115;49.296;10.602;2023-12-28T09:21:44;6.40;59.90
975;DHT22;6115;49.296;10.602;2023-12-28T09:26:44;6.50;60.70
975;DHT22;6115;49.296;10.602;2023-12-28T09:31:46;6.70;61.60
975;DHT22;6115;49.296;10.602;2023-12-28T09:36:46;6.80;62.30
975;DHT22;6115;49.296;10.602;2023-12-28T09:41:55;7.10;62.50
975;DHT22;6115;49.296;10.602;2023-12-28T09:47:02;7.30;63.50
975;DHT22;6115;49.296;10.602;2023-12-28T09:52:02;7.30;63.80
975;DHT22;6115;49.296;10.602;2023-12-28T09:57:03;7.40;63.70
975;DHT22;6115;49.296;10.602;2023-12-28T10:02:04;7.50;62.90
975;DHT22;6115;49.296;10.602;2023-12-28T10:07:05;7.70;62.40
975;DHT22;6115;49.296;10.602;2023-12-28T10:12:07;7.80;60.30
975;DHT22;6115;49.296;10.602;2023-12-28T10:17:08;7.90;59.60
975;DHT22;6115;49.296;10.602;2023-12-28T10:22:09;8.10;59.20
975;DHT22;6115;49.296;10.602;2023-12-28T10:27:10;8.20;58.70
975;DHT22;6115;49.296;10.602;2023-12-28T10:32:11;8.20;59.00
975;DHT22;6115;49.296;10.602;2023-12-28T10:37:11;8.40;59.40
975;DHT22;6115;49.296;10.602;2023-12-28T10:42:13;8.50;59.10
975;DHT22;6115;49.296;10.602;2023-12-28T10:47:18;8.40;61.00
975;DHT22;6115;49.296;10.602;2023-12-28T10:52:21;8.60;62.20
975;DHT22;6115;49.296;10.602;2023-12-28T10:57:28;8.80;62.30
975;DHT22;6115;49.296;10.602;2023-12-28T11:02:57;8.90;61.40
975;DHT22;6115;49.296;10.602;2023-12-28T11:07:59;9.00;61.10
975;DHT22;6115;49.296;10.602;2023-12-28T11:13:00;9.10;60.80
975;DHT22;6115;49.296;10.602;2023-12-28T11:18:02;9.40;60.60
975;DHT22;6115;49.296;10.602;2023-12-28T11:23:03;9.70;60.00
975;DHT22;6115;49.296;10.602;2023-12-28T11:28:11;9.80;60.10
975;DHT22;6115;49.296;10.602;2023-12-28T11:33:12;9.80;60.80
975;DHT22;6115;49.296;10.602;2023-12-28T11:38:15;9.80;61.70
975;DHT22;6115;49.296;10.602;2023-12-28T11:43:21;9.90;62.20
975;DHT22;6115;49.296;10.602;2023-12-28T11:48:25;10.00;61.40
975;DHT22;6115;49.296;10.602;2023-12-28T11:53:27;9.90;62.50
975;DHT22;6115;49.296;10.602;2023-12-28T11:58:27;9.80;62.90
975;DHT22;6115;49.296;10.602;2023-12-28T12:03:28;9.80;63.10
975;DHT22;6115;49.296;10.602;2023-12-28T12:08:29;9.90;63.10
975;DHT22;6115;49.296;10.602;2023-12-28T12:13:30;9.90;63.50
975;DHT22;6115;49.296;10.602;2023-12-28T12:18:32;9.80;64.00
975;DHT22;6115;49.296;10.602;2023-12-28T12:23:33;9.80;64.80
975;DHT22;6115;49.296;10.602;2023-12-28T12:28:34;9.90;65.20
975;DHT22;6115;49.296;10.602;2023-12-28T12:33:35;10.00;64.20
975;DHT22;6115;49.296;10.602;2023-12-28T12:38:36;9.90;65.10
975;DHT22;6115;49.296;10.602;2023-12-28T12:43:37;9.90;65.10
975;DHT22;6115;49.296;10.602;2023-12-28T12:48:37;10.00;64.20
975;DHT22;6115;49.296;10.602;2023-12-28T12:53:40;9.90;65.30
975;DHT22;6115;49.296;10.602;2023-12-28T12:58:40;9.90;65.70
975;DHT22;6115;49.296;10.602;2023-12-28T13:03:41;9.90;66.20
975;DHT22;6115;49.296;10.602;2023-12-28T13:08:42;10.00;65.40
975;DHT22;6115;49.296;10.602;2023-12-28T13:13:42;9.90;66.60
975;DHT22;6115;49.296;10.602;2023-12-28T13:18:43;9.90;67.00
975;DHT22;6115;49.296;10.602;2023-12-28T13:23:43;9.80;67.70
975;DHT22;6115;49.296;10.602;2023-12-28T13:28:44;9.80;68.00
975;DHT22;6115;49.296;10.602;2023-12-28T13:33:46;9.70;68.40
975;DHT22;6115;49.296;10.602;2023-12-28T13:38:47;9.70;68.70
975;DHT22;6115;49.296;10.602;2023-12-28T13:43:48;9.80;68.50
975;DHT22;6115;49.296;10.602;2023-12-28T13:48:48;9.80;68.10
975;DHT22;6115;49.296;10.602;2023-12-28T13:53:49;9.70;68.40
975;DHT22;6115;49.296;10.602;2023-12-28T13:58:50;9.70;68.40
975;DHT22;6115;49.296;10.602;2023-12-28T14:03:51;9.70;68.70
975;DHT22;6115;49.296;10.602;2023-12-28T14:08:52;9.80;68.60
975;DHT22;6115;49.296;10.602;2023-12-28T14:13:52;9.80;68.90
975;DHT22;6115;49.296;10.602;2023-12-28T14:18:53;9.60;69.80
975;DHT22;6115;49.296;10.602;2023-12-28T14:23:54;9.70;69.90
975;DHT22;6115;49.296;10.602;2023-12-28T14:28:55;9.80;70.00
975;DHT22;6115;49.296;10.602;2023-12-28T14:33:55;9.80;70.00
975;DHT22;6115;49.296;10.602;2023-12-28T14:38:57;9.80;69.70
975;DHT22;6115;49.296;10.602;2023-12-28T14:43:57;9.90;69.30
975;DHT22;6115;49.296;10.602;2023-12-28T14:48:58;9.90;69.80
975;DHT22;6115;49.296;10.602;2023-12-28T14:53:59;9.80;70.00
975;DHT22;6115;49.296;10.602;2023-12-28T14:58:59;9.70;69.90
975;DHT22;6115;49.296;10.602;2023-12-28T15:04:00;9.80;70.00
975;DHT22;6115;49.296;10.602;2023-12-28T15:09:00;9.60;70.70
975;DHT22;6115;49.296;10.602;2023-12-28T15:14:01;9.60;71.00
975;DHT22;6115;49.296;10.602;2023-12-28T15:19:02;9.70;71.10
975;DHT22;6115;49.296;10.602;2023-12-28T15:24:03;9.60;71.10
975;DHT22;6115;49.296;10.602;2023-12-28T15:29:04;9.60;71.50
975;DHT22;6115;49.296;10.602;2023-12-28T15:34:05;9.60;71.60
975;DHT22;6115;49.296;10.602;2023-12-28T15:39:06;9.60;71.80
975;DHT22;6115;49.296;10.602;2023-12-28T15:44:06;9.60;72.20
975;DHT22;6115;49.296;10.602;2023-12-28T15:49:07;9.60;72.40
975;DHT22;6115;49.296;10.602;2023-12-28T15:54:08;9.50;73.30
975;DHT22;6115;49.296;10.602;2023-12-28T15:59:08;9.40;74.20
975;DHT22;6115;49.296;10.602;2023-12-28T16:04:09;9.30;74.40
975;DHT22;6115;49.296;10.602;2023-12-28T16:09:10;9.20;74.50
975;DHT22;6115;49.296;10.602;2023-12-28T16:14:11;9.10;75.00
975;DHT22;6115;49.296;10.602;2023-12-28T16:19:12;9.00;74.80
975;DHT22;6115;49.296;10.602;2023-12-28T16:24:12;9.10;74.70
975;DHT22;6115;49.296;10.602;2023-12-28T16:29:13;9.00;74.60
975;DHT22;6115;49.296;10.602;2023-12-28T16:34:14;8.90;74.30
975;DHT22;6115;49.296;10.602;2023-12-28T16:39:14;9.00;74.10
975;DHT22;6115;49.296;10.602;2023-12-28T16:44:16;9.00;74.10
975;DHT22;6115;49.296;10.602;2023-12-28T16:49:17;9.00;73.80
975;DHT22;6115;49.296;10.602;2023-12-28T16:54:17;9.10;73.30
975;DHT22;6115;49.296;10.602;2023-12-28T16:59:18;9.00;72.80
975;DHT22;6115;49.296;10.602;2023-12-28T17:04:18;9.10;72.90
975;DHT22;6115;49.296;10.602;2023-12-28T17:09:19;9.20;72.40
975;DHT22;6115;49.296;10.602;2023-12-28T17:14:20;9.20;72.00
975;DHT22;6115;49.296;10.602;2023-12-28T17:19:21;9.30;71.40
975;DHT22;6115;49.296;10.602;2023-12-28T17:24:22;9.30;70.90
975;DHT22;6115;49.296;10.602;2023-12-28T17:29:25;9.40;71.00
975;DHT22;6115;49.296;10.602;2023-12-28T17:34:28;9.30;70.40
975;DHT22;6115;49.296;10.602;2023-12-28T17:39:29;9.30;70.10
975;DHT22;6115;49.296;10.602;2023-12-28T17:44:32;9.20;69.40
975;DHT22;6115;49.296;10.602;2023-12-28T17:49:39;9.20;69.40
975;DHT22;6115;49.296;10.602;2023-12-28T17:54:42;9.10;69.70
975;DHT22;6115;49.296;10.602;2023-12-28T17:59:42;9.10;69.40
975;DHT22;6115;49.296;10.602;2023-12-28T18:04:44;9.00;69.60
975;DHT22;6115;49.296;10.602;2023-12-28T18:09:45;8.90;69.10
975;DHT22;6115;49.296;10.602;2023-12-28T18:14:45;8.90;69.20
975;DHT22;6115;49.296;10.602;2023-12-28T18:19:46;8.90;69.10
975;DHT22;6115;49.296;10.602;2023-12-28T18:24:47;8.80;69.00
975;DHT22;6115;49.296;10.602;2023-12-28T18:29:50;8.80;69.00
975;DHT22;6115;49.296;10.602;2023-12-28T18:34:53;8.80;69.10
975;DHT22;6115;49.296;10.602;2023-12-28T18:39:55;8.80;69.00
975;DHT22;6115;49.296;10.602;2023-12-28T18:44:58;8.80;69.10
975;DHT22;6115;49.296;10.602;2023-12-28T18:49:59;8.70;69.30
975;DHT22;6115;49.296;10.602;2023-12-28T18:55:00;8.70;69.10
975;DHT22;6115;49.296;10.602;2023-12-28T19:00:00;8.80;69.10
975;DHT22;6115;49.296;10.602;2023-12-28T19:05:01;8.70;68.90
975;DHT22;6115;49.296;10.602;2023-12-28T19:10:02;8.60;69.30
975;DHT22;6115;49.296;10.602;2023-12-28T19:15:03;8.60;69.70
975;DHT22;6115;49.296;10.602;2023-12-28T19:20:04;8.50;70.10
975;DHT22;6115;49.296;10.602;2023-12-28T19:25:05;8.40;70.80
975;DHT22;6115;49.296;10.602;2023-12-28T19:30:06;8.40;71.10
975;DHT22;6115;49.296;10.602;2023-12-28T19:35:08;8.40;71.60
975;DHT22;6115;49.296;10.602;2023-12-28T19:40:12;8.40;71.80
975;DHT22;6115;49.296;10.602;2023-12-28T19:45:12;8.50;72.30
975;DHT22;6115;49.296;10.602;2023-12-28T19:50:13;8.60;72.00
975;DHT22;6115;49.296;10.602;2023-12-28T19:55:14;8.60;71.50
975;DHT22;6115;49.296;10.602;2023-12-28T20:00:15;8.70;71.30
975;DHT22;6115;49.296;10.602;2023-12-28T20:05:17;8.80;70.90
975;DHT22;6115;49.296;10.602;2023-12-28T20:10:18;8.90;70.70
975;DHT22;6115;49.296;10.602;2023-12-28T20:15:19;8.90;70.50
975;DHT22;6115;49.296;10.602;2023-12-28T20:20:23;9.00;70.10
975;DHT22;6115;49.296;10.602;2023-12-28T20:25:24;9.10;69.80
975;DHT22;6115;49.296;10.602;2023-12-28T20:30:25;9.10;69.60
975;DHT22;6115;49.296;10.602;2023-12-28T20:35:25;9.10;69.40
975;DHT22;6115;49.296;10.602;2023-12-28T20:40:26;9.10;69.40
975;DHT22;6115;49.296;10.602;2023-12-28T20:45:26;9.20;69.40
975;DHT22;6115;49.296;10.602;2023-12-28T20:50:27;9.20;70.00
975;DHT22;6115;49.296;10.602;2023-12-28T20:55:27;9.10;71.20
975;DHT22;6115;49.296;10.602;2023-12-28T21:00:28;9.00;72.30
975;DHT22;6115;49.296;10.602;2023-12-28T21:05:29;9.00;73.30
975;DHT22;6115;49.296;10.602;2023-12-28T21:10:29;8.90;74.00
975;DHT22;6115;49.296;10.602;2023-12-28T21:15:32;8.90;74.00
975;DHT22;6115;49.296;10.602;2023-12-28T21:20:33;8.90;74.00
975;DHT22;6115;49.296;10.602;2023-12-28T21:25:33;9.00;74.10
975;DHT22;6115;49.296;10.602;2023-12-28T21:30:34;9.10;72.80
975;DHT22;6115;49.296;10.602;2023-12-28T21:35:39;9.10;71.60
975;DHT22;6115;49.296;10.602;2023-12-28T21:40:39;9.10;70.80
975;DHT22;6115;49.296;10.602;2023-12-28T21:45:41;9.20;70.60
975;DHT22;6115;49.296;10.602;2023-12-28T21:50:42;9.20;70.00
975;DHT22;6115;49.296;10.602;2023-12-28T21:55:43;9.20;69.70
975;DHT22;6115;49.296;10.602;2023-12-28T22:00:44;9.20;69.40
975;DHT22;6115;49.296;10.602;2023-12-28T22:05:44;9.20;69.40
975;DHT22;6115;49.296;10.602;2023-12-28T22:10:45;9.20;68.90
975;DHT22;6115;49.296;10.602;2023-12-28T22:15:54;9.30;68.90
975;DHT22;6115;49.296;10.602;2023-12-28T22:20:54;9.30;68.70
975;DHT22;6115;49.296;10.602;2023-12-28T22:25:55;9.30;68.50
975;DHT22;6115;49.296;10.602;2023-12-28T22:30:55;9.30;68.30
975;DHT22;6115;49.296;10.602;2023-12-28T22:35:56;9.30;68.20
975;DHT22;6115;49.296;10.602;2023-12-28T22:40:57;9.40;68.10
975;DHT22;6115;49.296;10.602;2023-12-28T22:45:57;9.40;67.80
975;DHT22;6115;49.296;10.602;2023-12-28T22:50:58;9.40;67.80
975;DHT22;6115;49.296;10.602;2023-12-28T22:55:59;9.30;68.10
975;DHT22;6115;49.296;10.602;2023-12-28T23:00:59;9.40;67.80
975;DHT22;6115;49.296;10.602;2023-12-28T23:06:00;9.40;67.60
975;DHT22;6115;49.296;10.602;2023-12-28T23:11:02;9.40;67.60
975;DHT22;6115;49.296;10.602;2023-12-28T23:16:04;9.40;67.70
975;DHT22;6115;49.296;10.602;2023-12-28T23:21:05;9.30;67.90
975;DHT22;6115;49.296;10.602;2023-12-28T23:26:06;9.30;68.20
975;DHT22;6115;49.296;10.602;2023-12-28T23:31:06;9.30;68.20
975;DHT22;6115;49.296;10.602;2023-12-28T23:36:07;9.20;68.30
975;DHT22;6115;49.296;10.602;2023-12-28T23:41:09;9.30;68.30
975;DHT22;6115;49.296;10.602;2023-12-28T23:46:10;9.20;67.90
975;DHT22;6115;49.296;10.602;2023-12-28T23:51:11;9.10;68.40
975;DHT22;6115;49.296;10.602;2023-12-28T23:56:17;8.90;68.80
